Latest Weather Observations for Thredbo Top Station

IDN60901

Issued at 8:05 am EST Wednesday 3 September 2014 (issued every 10 minutes, with the page automatically refreshed every 10 minutes)

About weather observations | Map of Canberra area stations | Latest observations for Canberra area | Other Formats
Station Details ID: 071032 Name: THREDBO AWS Lat: -36.49 Lon: 148.29 Height: 1957.0 m
Data from the previous 72 hours. | See also: Recent months at Thredbo Top Station
Date/Time
EST
Tmp

°C
App
Tmp
°C
Dew
Point
°C
Rel
Hum
%
Delta-T

°C
Wind Press
QNH
hPa
Press
MSL
hPa
Rain
since
9 am
mm
Dir
 
Spd
km/h
Gust
km/h
Spd
kts
Gust
kts
03/08:00am -4.7 -15.1 -5.1 97 -0.1 SSE 41 52 22 28 1016.8 1020.0 3.0
03/07:30am -4.8 -14.5 -5.2 97 -0.1 SSE 37 48 20 26 1016.6 - 3.0
03/07:00am -4.9 -15.3 -5.3 97 -0.1 SSE 41 56 22 30 1016.4 1019.5 3.0
03/06:30am -5.6 -16.5 -6.1 96 -0.1 SSE 43 54 23 29 1016.4 - 3.0
03/06:00am -5.6 -15.7 -6.1 96 -0.1 SSE 39 52 21 28 1016.3 1019.4 3.0
03/05:30am -5.4 -15.1 -5.9 96 -0.1 SSE 37 48 20 26 1015.8 - 3.0
03/05:00am -6.0 -14.8 -6.5 96 -0.1 SSE 32 41 17 22 1015.9 1019.0 3.0
03/04:30am -7.3 -15.9 -8.1 94 0.0 SSE 30 39 16 21 1015.7 - 3.0
03/04:00am -8.2 -17.8 -9.1 93 0.0 SSE 35 46 19 25 1015.5 1018.5 3.0
03/03:30am -8.2 -16.9 -9.1 93 0.0 SSE 30 37 16 20 1015.2 - 3.0
03/03:00am -7.8 -17.4 -8.7 93 0.0 SSE 35 44 19 24 1015.2 1018.3 3.0
03/02:30am -6.9 -15.8 -7.6 95 0.0 SSE 32 44 17 24 1015.5 - 3.0
03/02:08am -6.5 -15.4 -7.2 95 0.0 SSE 32 52 17 28 1015.4 - 3.0
03/02:00am -6.3 -14.4 -7.0 95 0.0 SE 28 41 15 22 1015.5 1018.5 3.0
03/01:30am -5.9 -14.9 -6.4 96 -0.1 SSE 33 46 18 25 1015.8 - 3.0
03/01:00am -5.9 -14.9 -6.4 96 -0.1 SE 33 44 18 24 1016.0 1019.1 3.0
03/12:32am -5.4 -15.5 -5.8 97 -0.1 SE 39 57 21 31 1015.7 - 3.0
03/12:30am -5.3 -15.4 -5.7 97 -0.1 SE 39 48 21 26 1015.7 - 3.0
03/12:00am -5.0 -13.0 -5.4 97 -0.1 SE 28 35 15 19 1015.7 1018.8 3.0
 
Date/Time
EST
Tmp

°C
App
Tmp
°C
Dew
Point
°C
Rel
Hum
%
Delta-T

°C
Wind Press
QNH
hPa
Press
MSL
hPa
Rain
since
9 am
mm
Dir
 
Spd
km/h
Gust
km/h
Spd
kts
Gust
kts
02/11:30pm -5.2 -13.2 -5.6 97 -0.1 ESE 28 43 15 23 1015.9 - 3.0
02/11:00pm -5.2 -14.1 -5.6 97 -0.1 SE 33 48 18 26 1015.6 1018.7 3.0
02/10:30pm -5.3 -15.0 -5.7 97 -0.1 SE 37 52 20 28 1015.9 - 3.0
02/10:00pm -5.1 -15.9 -5.5 97 -0.1 SE 43 67 23 36 1015.7 1018.8 3.0
02/09:33pm -5.1 -14.8 -5.5 97 -0.1 SE 37 56 20 30 1015.8 - 3.0
02/09:30pm -5.1 -15.2 -5.5 97 -0.1 SE 39 52 21 28 1015.7 - 3.0
02/09:00pm -5.1 -15.9 -5.5 97 -0.1 SE 43 65 23 35 1015.8 1018.9 3.0
02/08:38pm -5.0 -15.1 -5.4 97 -0.1 SE 39 57 21 31 1015.7 - 3.0
02/08:30pm -5.0 -14.3 -5.4 97 -0.1 SE 35 52 19 28 1015.7 - 3.0
02/08:00pm -4.8 -14.8 -5.2 97 -0.1 SE 39 61 21 33 1015.5 1018.5 3.0
02/07:34pm -4.9 -14.2 -5.3 97 -0.1 SE 35 54 19 29 1015.1 - 3.0
02/07:30pm -5.0 -14.7 -5.4 97 -0.1 SE 37 54 20 29 1015.0 - 3.0
02/07:00pm -5.0 -16.8 -5.4 97 -0.1 SE 48 67 26 36 1014.6 1017.6 3.0
02/06:30pm -4.8 -15.6 -5.1 98 -0.1 SE 43 63 23 34 1014.4 - 3.0
02/06:13pm -4.6 -14.6 -4.9 98 -0.1 SE 39 61 21 33 1014.0 - 3.0
02/06:00pm -3.9 -14.6 -4.2 98 -0.1 SSE 43 56 23 30 1013.8 1016.8 3.0
02/05:38pm -4.1 -14.8 -4.4 98 -0.1 SE 43 61 23 33 1013.2 - 3.0
02/05:30pm -3.8 -14.1 -4.1 98 -0.1 SE 41 52 22 28 1013.2 - 3.0
02/05:00pm -3.8 -15.8 -4.1 98 -0.1 SSE 50 67 27 36 1012.5 1015.5 3.0
02/04:30pm -3.9 -15.9 -4.2 98 -0.1 SSE 50 72 27 39 1012.4 - 3.0
02/04:00pm -3.8 -15.4 -4.1 98 -0.1 SSE 48 67 26 36 1012.3 1015.2 3.0
02/03:34pm -3.8 -13.7 -4.1 98 -0.1 SSE 39 61 21 33 1012.0 - 3.0
02/03:30pm -3.6 -13.1 -3.9 98 -0.1 SSE 37 46 20 25 1011.8 - 3.0
02/03:11pm -3.5 -11.7 -3.8 98 -0.1 SSE 30 48 16 26 1011.6 - 3.0
02/03:00pm -3.6 -12.7 -3.9 98 -0.1 SSE 35 48 19 26 1011.6 1014.5 3.0
02/02:30pm -3.4 -11.9 -3.7 98 0.0 SSE 32 52 17 28 1011.6 - 3.0
02/02:00pm -3.5 -12.6 -3.8 98 -0.1 SSE 35 59 19 32 1011.4 1014.3 3.0
02/01:31pm -3.4 -12.5 -3.7 98 0.0 S 35 63 19 34 1011.1 - 3.0
02/01:30pm -3.4 -12.1 -3.7 98 0.0 S 33 48 18 26 1011.1 - 3.0
02/01:17pm -3.5 -12.1 -3.8 98 -0.1 S 32 50 17 27 1011.0 - 3.0
02/01:00pm -3.6 -13.1 -3.9 98 -0.1 S 37 50 20 27 1011.2 1014.2 3.0
02/12:54pm -3.5 -12.1 -3.8 98 -0.1 S 32 50 17 27 1011.1 - 3.0
02/12:30pm -3.4 -12.9 -3.7 98 0.0 S 37 52 20 28 1011.1 - 3.0
02/12:00pm -2.5 -11.9 -2.6 99 -0.1 S 37 52 20 28 1010.9 1013.8 2.8
02/11:49am -2.9 -12.7 -3.0 99 -0.1 S 39 57 21 31 1010.9 - 2.2
02/11:30am -2.9 -11.9 -3.0 99 -0.1 S 35 50 19 27 1011.1 - 0.0
02/11:03am -2.8 -13.0 -2.9 99 -0.1 S 41 59 22 32 1011.1 - 0.0
02/11:00am -2.9 -13.6 -3.0 99 -0.1 S 44 59 24 32 1011.0 1013.9 0.0
02/10:31am -3.2 -11.9 -3.5 98 0.0 S 33 52 18 28 1011.1 - 0.0
02/10:30am -3.2 -11.9 -3.5 98 0.0 S 33 46 18 25 1011.1 - 0.0
02/10:00am -3.2 -11.9 -3.5 98 0.0 S 33 43 18 23 1011.0 1013.9 0.0
02/09:30am -3.5 -12.1 -3.8 98 -0.1 S 32 44 17 24 1010.9 - 0.0
02/09:00am -3.7 -11.9 -4.0 98 -0.1 S 30 39 16 21 1010.9 1013.8 1.4
02/08:30am -3.8 -12.4 -4.1 98 -0.1 S 32 44 17 24 1010.7 - 1.4
02/08:00am -3.7 -12.3 -4.0 98 -0.1 S 32 43 17 23 1010.4 1013.3 1.4
02/07:30am -4.0 -11.5 -4.3 98 -0.1 SSE 26 39 14 21 1010.4 - 1.4
02/07:00am -3.9 -11.0 -4.2 98 -0.1 SSE 24 35 13 19 1010.0 1012.9 1.4
02/06:30am -3.9 -10.6 -4.2 98 -0.1 SSE 22 33 12 18 1009.8 - 1.4
02/06:00am -3.4 -10.4 -3.7 98 0.0 S 24 35 13 19 1009.5 1012.4 1.4
02/05:30am -3.0 -10.0 -3.1 99 -0.1 SSE 24 35 13 19 1009.0 - 1.4
02/05:00am -2.7 -8.3 -2.8 99 -0.1 SSE 17 22 9 12 1009.0 1011.8 1.4
02/04:30am -2.8 -9.4 -2.9 99 -0.1 S 22 30 12 16 1008.7 - 1.4
02/04:00am -2.7 -9.6 -2.8 99 -0.1 S 24 35 13 19 1008.6 1011.4 1.4
02/03:30am -2.2 -9.8 -2.3 99 -0.1 S 28 33 15 18 1008.3 - 1.4
02/03:00am -1.9 -8.3 -2.0 99 -0.1 SSW 22 32 12 17 1008.4 1011.2 1.4
02/02:30am -1.6 -7.0 -1.7 99 0.0 SW 17 24 9 13 1008.3 - 1.4
02/02:00am -1.1 -6.9 -1.2 99 0.0 SW 19 24 10 13 1008.5 1011.3 1.4
02/01:30am -0.9 -9.1 -1.0 99 0.0 W 32 39 17 21 1008.2 - 1.4
02/01:00am -0.8 -9.0 -0.9 99 0.0 W 32 44 17 24 1008.5 1011.3 1.4
02/12:32am -0.4 -9.5 -0.5 99 0.0 WNW 37 56 20 30 1007.9 - 1.4
02/12:30am -0.4 -9.9 -0.5 99 0.0 WNW 39 56 21 30 1007.9 - 1.4
02/12:25am -0.4 -10.6 -0.5 99 0.0 WNW 43 56 23 30 1008.2 - 1.4
02/12:05am -0.3 -14.7 -0.4 99 0.0 WNW 65 83 35 45 1008.3 - 1.4
02/12:00am -0.2 -15.0 -0.3 99 0.0 WNW 67 82 36 44 1008.6 1011.4 1.4
 
Date/Time
EST
Tmp

°C
App
Tmp
°C
Dew
Point
°C
Rel
Hum
%
Delta-T

°C
Wind Press
QNH
hPa
Press
MSL
hPa
Rain
since
9 am
mm
Dir
 
Spd
km/h
Gust
km/h
Spd
kts
Gust
kts
01/11:54pm -0.2 -15.5 -0.3 99 0.0 WNW 70 82 38 44 1008.5 - 1.4
01/11:30pm -0.2 -12.1 -0.3 99 0.0 W 52 70 28 38 1008.3 - 1.4
01/11:00pm -0.1 -13.3 -0.2 99 0.0 W 59 80 32 43 1008.6 1011.4 1.4
01/10:30pm -0.1 -13.7 -0.2 99 0.0 W 61 85 33 46 1009.1 - 1.4
01/10:07pm 0.0 -13.2 -0.1 99 0.0 W 59 78 32 42 1009.3 - 1.4
01/10:00pm 0.0 -13.2 -0.1 99 0.0 W 59 74 32 40 1009.2 1012.0 1.4
01/09:30pm 0.0 -12.8 -0.1 99 0.0 W 57 82 31 44 1009.0 - 1.4
01/09:00pm 0.0 -12.8 -0.1 99 0.0 W 57 80 31 43 1009.1 1011.9 1.4
01/08:30pm 0.1 -12.1 0.0 99 0.0 W 54 74 29 40 1009.3 - 1.4
01/08:00pm 0.5 -11.7 0.4 99 0.0 W 54 74 29 40 1009.6 1012.5 1.4
01/07:30pm 1.3 -11.3 1.2 99 0.0 W 57 82 31 44 1009.3 - 1.2
01/07:00pm 1.6 -11.4 1.5 99 0.0 W 59 85 32 46 1008.8 1011.7 0.4
01/06:57pm 1.8 -10.7 1.7 99 0.0 W 57 76 31 41 1008.6 - 0.4
01/06:55pm 1.7 -11.2 1.6 99 0.0 W 59 70 32 38 1008.8 - 0.2
01/06:30pm 2.3 -15.1 1.0 91 0.5 WNW 82 100 44 54 1008.7 - 0.0
01/06:00pm 2.4 -15.1 1.5 94 0.4 WNW 83 107 45 58 1008.5 1011.3 0.0
01/05:30pm 2.6 -15.8 1.0 89 0.7 WNW 87 107 47 58 1008.5 - 0.0
01/05:00pm 2.6 -15.8 1.0 89 0.7 WNW 87 109 47 59 1008.3 1011.1 0.0
01/04:31pm 2.5 -15.5 0.9 89 0.7 WNW 85 106 46 57 1008.3 - 0.0
01/04:30pm 2.6 -15.4 0.8 88 0.7 WNW 85 102 46 55 1008.5 - 0.0
01/04:00pm 2.8 -16.0 0.5 85 1.0 WNW 89 109 48 59 1008.0 1010.9 0.0
01/03:30pm 3.0 -15.9 -0.3 79 1.3 WNW 89 117 48 63 1008.5 - 0.0
01/03:00pm 2.9 -15.2 0.1 82 1.2 WNW 85 106 46 57 1009.2 1012.0 0.0
01/02:42pm 2.8 -16.0 0.4 84 1.0 WNW 89 109 48 59 1009.4 - 0.0
01/02:30pm 2.8 -16.2 -0.5 79 1.3 WNW 89 106 48 57 1009.1 - 0.0
01/02:00pm 2.2 -18.0 -0.9 80 1.2 WNW 95 113 51 61 1009.5 1012.4 0.0
01/01:30pm 2.6 -16.3 -0.3 81 1.2 WNW 89 111 48 60 1009.9 - 0.0
01/01:00pm 2.5 -15.4 -1.1 77 1.4 WNW 83 102 45 55 1010.7 1013.6 0.0
01/12:47pm 2.3 -15.3 -0.6 81 1.2 WNW 82 100 44 54 1011.2 - 0.0
01/12:30pm 2.4 -14.9 -1.0 78 1.3 WNW 80 96 43 52 1011.5 - 0.0
01/12:03pm 2.4 -13.5 -1.4 76 1.5 WNW 72 93 39 50 1012.2 - 0.0
01/12:00pm 2.3 -13.5 -1.1 78 1.3 WNW 72 89 39 48 1012.2 1015.1 0.0
01/11:30am 1.8 -12.6 -0.6 84 1.0 WNW 65 83 35 45 1013.2 - 0.0
01/11:11am 2.0 -11.3 -0.6 83 1.0 WNW 59 78 32 42 1013.6 - 0.0
01/11:00am 1.9 -10.8 -0.5 84 1.0 WNW 56 70 30 38 1013.9 1016.9 0.0
01/10:30am 2.0 -11.3 -0.4 84 1.0 WNW 59 72 32 39 1014.4 - 0.0
01/10:00am 1.9 -10.8 -0.7 83 1.0 WNW 56 72 30 39 1015.1 1018.2 0.0
01/09:30am 1.9 -10.5 -0.8 82 1.1 WNW 54 67 29 36 1015.2 - 0.0
01/09:00am 1.6 -10.0 -1.1 82 1.1 WNW 50 59 27 32 1015.2 1019.8 0.0
01/08:30am 1.3 -11.1 -0.9 85 0.9 WNW 54 63 29 34 1015.7 - 0.0
01/08:00am 1.1 -10.5 -0.8 87 0.7 WNW 50 65 27 35 1015.9 1020.5 0.0
01/07:30am 1.1 -11.8 -0.8 87 0.7 WNW 57 67 31 36 1015.7 - 0.0
01/07:00am 1.7 -12.7 -3.0 71 1.9 WNW 63 72 34 39 1015.6 1020.2 0.0
01/06:30am 1.7 -13.4 -2.6 73 1.6 WNW 67 80 36 43 1015.1 - 0.0
01/06:00am 1.5 -13.6 -3.0 72 1.8 WNW 67 76 36 41 1014.9 1019.4 0.0
01/05:30am 1.7 -11.5 -4.2 65 2.2 WNW 56 67 30 36 1014.6 - 0.0
01/05:00am 1.4 -10.7 -4.6 64 2.2 W 50 57 27 31 1014.7 1019.2 0.0
01/04:30am 1.8 -10.2 -3.9 66 2.2 W 50 61 27 33 1014.7 - 0.0
01/04:00am 2.3 -9.2 -2.8 69 1.9 W 48 59 26 32 1014.7 1019.2 0.0
01/03:30am 2.0 -8.6 -3.3 68 2.0 W 43 59 23 32 1015.1 - 0.0
01/03:00am 2.6 -7.2 -2.9 67 2.1 W 39 50 21 27 1015.4 1019.9 0.0
01/02:30am 2.4 -6.1 -2.9 68 2.0 W 32 39 17 21 1015.7 - 0.0
01/02:00am 2.2 -7.0 -4.3 62 2.5 W 35 46 19 25 1016.0 1020.6 0.0
01/01:30am 1.7 -8.0 -5.4 59 2.6 W 37 46 20 25 1016.3 - 0.0
01/01:00am 1.1 -8.8 -4.3 67 2.0 W 39 46 21 25 1016.7 1021.3 0.0
01/12:30am 1.5 -7.6 -7.0 53 2.9 W 33 39 18 21 1016.7 - 0.0
01/12:00am 2.0 -6.9 -7.3 50 3.2 W 32 35 17 19 1016.8 1021.5 0.0
 
Date/Time
EST
Tmp

°C
App
Tmp
°C
Dew
Point
°C
Rel
Hum
%
Delta-T

°C
Wind Press
QNH
hPa
Press
MSL
hPa
Rain
since
9 am
mm
Dir
 
Spd
km/h
Gust
km/h
Spd
kts
Gust
kts
31/11:30pm 1.2 -7.0 -7.3 53 2.9 W 28 32 15 17 1017.1 - 0.0
31/11:00pm 2.4 -6.9 -9.8 40 4.0 WNW 33 37 18 20 1017.4 1022.1 0.0
31/10:30pm 2.7 -6.2 -7.7 46 3.6 W 32 35 17 19 1017.8 - 0.0
31/10:00pm 1.9 -5.9 -7.1 51 3.1 W 26 32 14 17 1018.1 1022.8 0.0
31/09:30pm 2.2 -5.6 -7.7 48 3.4 W 26 30 14 16 1018.4 - 0.0
31/09:00pm 0.8 -6.2 -6.7 57 2.6 W 22 26 12 14 1018.6 1023.2 0.0
31/08:30pm 0.5 -4.9 -4.5 69 1.8 W 15 19 8 10 1018.8 - 0.0
31/08:00pm -0.1 -4.9 -5.9 65 2.0 WNW 11 15 6 8 1018.7 1023.4 0.0
31/07:30pm -0.1 -5.9 -4.3 73 1.5 NW 17 19 9 10 1018.6 - 0.0
31/07:00pm -1.2 -6.7 -5.2 74 1.3 NW 15 15 8 8 1018.2 1022.9 0.0
31/06:30pm -0.5 -5.9 -4.7 73 1.4 NW 15 17 8 9 1018.3 - 0.0
31/06:00pm 0.3 -4.7 -4.5 70 1.7 NW 13 15 7 8 1018.2 1022.9 0.0
31/05:30pm 1.0 -3.6 -4.0 69 1.9 NW 11 15 6 8 1018.0 - 0.0
31/05:00pm 2.1 -2.5 -4.4 62 2.5 WNW 11 15 6 8 1017.9 1022.5 0.0
31/04:30pm 3.2 -0.7 -4.5 57 2.8 W 7 9 4 5 1017.6 - 0.0
31/04:00pm 4.1 -0.8 -3.2 59 2.8 WSW 13 19 7 10 1017.6 1022.3 0.0
31/03:30pm 4.5 -0.8 -3.7 55 3.1 WSW 15 20 8 11 1017.8 - 0.0
31/03:00pm 3.3 -2.4 -3.7 60 2.6 WSW 17 22 9 12 1017.8 1022.4 0.0
31/02:30pm 5.5 1.6 -6.4 42 4.3 WSW 6 9 3 5 1018.0 - 0.0
31/02:00pm 4.4 -0.7 -5.4 49 3.5 WSW 13 17 7 9 1018.1 1022.8 0.0
31/01:30pm 5.9 0.4 -10.3 30 5.3 SSW 13 15 7 8 1018.2 - 0.0
31/01:00pm 5.9 0.7 -11.2 28 5.5 SW 11 15 6 8 1018.4 1023.1 0.0
31/12:30pm 2.7 -3.6 -4.3 60 2.6 W 20 26 11 14 1019.1 - 0.0
31/12:00pm 2.2 -4.8 -3.7 65 2.2 W 24 32 13 17 - - 0.0
31/11:30am 2.1 -6.6 -4.8 60 2.6 W 32 37 17 20 - - 0.0
31/11:00am 1.9 -6.9 -5.7 57 2.8 W 32 39 17 21 - - 0.0
31/10:30am 1.8 -7.0 -6.5 54 2.9 W 32 39 17 21 - - 0.0
31/10:00am 1.5 -7.9 -6.5 55 2.8 W 35 44 19 24 - - 0.0
31/09:30am 1.5 -7.6 -7.5 51 3.1 W 33 41 18 22 - - 0.0
31/09:00am 1.5 -7.9 -11.6 37 4.0 W 33 39 18 21 - - 0.0
31/08:30am 1.3 -7.8 -10.2 42 3.6 W 32 37 17 20 - - 0.0

Latest Capital City Observations: Canberra | Sydney | Melbourne | Brisbane | Adelaide | Perth | Hobart | Darwin

Other Formats:

Comma delimited format used in spreadsheet applications
http://www.bom.gov.au/fwo/IDN60903/IDN60903.95909.axf

JavaScript Object Notation format (JSON) in row-major order
http://www.bom.gov.au/fwo/IDN60903/IDN60903.95909.json